Share

Wildrose, ND (58795)

Rural Wildrose (KNDWILDR3) Elev 2238 ft | 48.63 °N, 103.16 °W | Change Station

Current weather conditions updated 3 minutes ago

Overcast
Overcast
43.2 °F
Feels Like 38 °F
N
8.9
Wind Variable Wind from SE
Sunrise 6:58 AM
Sunset 8:47 PM
Moon Waning Gibbous

Today is forecast to be Much Warmer than yesterday. Showers possible in the afternoon.

Pressure 30.15 in
Visibility 10.0 miles
Clouds Overcast 4300 ft
Windchill 38 °F
Dew Point 28 °F
Humidity 55%
Rainfall 0.00 in
Snow Depth Not available.
UV 2 out of 16
Pollen 6.80 out of 12
Air Quality Not available.
Flu Activity Sporadic
METAR KD60 172035Z AUTO 15017G26KT 10SM OVC043 04/M05 A3015 RMK AO2

More Conditions Fewer Conditions

Pressure 30.15 in
Visibility 10.0 miles
Clouds Overcast 4300 ft
Windchill 38 °F
Dew Point 28 °F
Humidity 55%
Rainfall 0.00 in
Snow Depth Not available.
UV 2 out of 16
Pollen 6.80 out of 12
Air Quality Not available.
Flu Activity Sporadic
METAR KD60 172035Z AUTO 15017G26KT 10SM OVC043 04/M05 A3015 RMK AO2

More Conditions Fewer Conditions

10-Day Forecast

Almanac

Astronomy

Apr. 17, 2014 Rise Set
Actual Time 6:58 AM CDT 8:47 PM CDT
Civil Twilight 6:25 AM CDT 9:20 PM CDT
Nautical Twilight 5:44 AM CDT 10:01 PM CDT
Astronomical Twilight 4:59 AM CDT 10:47 PM CDT
Moon 11:45 PM CDT 8:23 AM CDT
Length of Visible Light 14h 55m
Length of Day
13h 48m
Tomorrow will be 3m 24s longer.
Waning Gibbous, 92% of the Moon is Illuminated
Today
Waning Gibbous
Apr 22
Last Quarter
Apr 29
New
May 6
First Quarter
May 14
Full

Today's Extremes

State Highs State Lows

Community

  • Morning Light
    Morning Light
  • New Day
    New Day
  • Lake Michigan Sunrise
    Lake Michigan Sunrise
  • sunset from izmir, narlıdere
    sunset from izmir, narlıdere
  • oregon cherry
    oregon cherry

WunderPhotos

Upload Photos

1,702,123 photos uploaded!

Nearby

Snow Depth

Station Depth Elevation
No new snow has been reported.

Coastal Water Temperatures

Place Temperature
No Stations Reporting

Earthquake Activity

City Distance Mag. Time & Date
No recent earthquake activity has been reported nearby.
Minimum magnitude displayed is 2.5.

Nearby Weather Stations

Station Location Temp. Windchill Dew Point Humidity Wind Precip. Elev Updated Type
Rural Wildrose, Wildrose, ND 43.2 °F 38 °F 28 °F 55% SE  at  8.9 mph - / hr 2238 ft 3:49 PM CDT Normal
Alamo, ND 42.3 °F 34 °F 25 °F 51% South  at  20.0 mph 0.00 in / hr 2100 ft 3:39 PM CDT Normal
South of Alamo, ND, ALAMO, ND 46.2 °F 41 °F 24 °F 42% SE  at  11.0 mph 0.00 in / hr 2100 ft 3:53 PM CDT Rapid Fire
NDDOT Crosby ND 5 MP 28.7, Crosby, ND 41 °F 33 °F 21 °F 45% SSW  at  14 mph 0.00 in / hr 2185 ft 3:07 PM CDT MADIS

Show More Stations Show Fewer Stations

What do you think?

We're not finished. Please let us know what you like, what you don't like, and what you are still missing.